Linneus, Missouri
Current Conditions -  °F | °C
As of 3:55 AM on Friday 19 Dec 2014 (Local Time) from KIRK Reporting Station
Overcast Overcast  
Wind Chill: 29°   Ceiling: 2600
Heat Index: 29°   Visibility: 7mi
Dew Point: 26°   Wind: 0mph
Humidity: 89%   Direction: NA
Pressure: 30.27"   Gusts: NA
Location:  39.88°N, 93.19°W
Report Text: KIRK 190955Z AUTO 00000KT 7SM BKN026 OVC060 M02/M03 A3027 RMK AO2 SLP264 T10171033
Loading
Personal Weather Stations






























Interactive Weather Map New forecast layout! Learn more

10-Day Weather Forecast

Advertisements
Track Severe Weather on mobile